Terminal Aerodrome Forecast
Issued by NWS

Home | Current Version | Previous Version | Text Only | Print | Product List | Glossary Off
Versions: 1 2 3 4 5 6 7 8 9 10 11 12 13

660
FTUS42 KMHX 101131
TAFPGV
TAF
KPGV 101131Z 1012/1112 26007KT P6SM SKC
     FM101400 27010G17KT P6SM BKN045
     FM110000 27005KT P6SM SKC
      AMD LTD TO CLD VIS AND WIND=

USA.gov is the U.S. government's official web portal to all federal, state and local government web resources and services.